createdAt,value
2023-06-07T00:03:36.770Z,7.6
2023-06-07T00:08:21.233Z,7
2023-06-07T00:13:05.290Z,9.2
2023-06-07T00:17:49.509Z,15.2
2023-06-07T00:27:17.823Z,8.7
2023-06-07T00:32:02.043Z,8.6
2023-06-07T00:36:46.142Z,9.7
2023-06-07T00:41:30.358Z,9.6
2023-06-07T00:46:14.467Z,10.8
2023-06-07T00:50:58.688Z,11.1
2023-06-07T00:55:42.894Z,12.7
2023-06-07T01:00:27.020Z,11.1
2023-06-07T01:05:11.219Z,10.5
2023-06-07T01:09:55.517Z,11.3
2023-06-07T01:14:39.738Z,9.89
2023-06-07T01:19:23.849Z,11.3
2023-06-07T01:24:08.064Z,10.6
2023-06-07T01:28:52.170Z,12.2
2023-06-07T01:33:36.382Z,11.1
2023-06-07T01:38:20.600Z,11.2
2023-06-07T01:43:04.701Z,12.5
2023-06-07T01:47:49.411Z,11.2
2023-06-07T01:52:33.521Z,10.2
2023-06-07T01:57:17.727Z,11.2
2023-06-07T02:02:02.042Z,9.89
2023-06-07T02:06:46.301Z,9.7
2023-06-07T02:11:30.354Z,11
2023-06-07T02:25:42.900Z,10.7
2023-06-07T02:30:27.104Z,13.4
2023-06-07T02:35:11.250Z,10.5
2023-06-07T02:39:55.456Z,11.9
2023-06-07T02:44:40.040Z,10.6
2023-06-07T02:49:24.249Z,10.6
2023-06-07T02:58:52.573Z,11.6
2023-06-07T03:03:36.781Z,12.6
2023-06-07T03:08:21.091Z,11.9
2023-06-07T03:13:05.302Z,16
2023-06-07T03:17:49.415Z,13.7
2023-06-07T03:22:33.622Z,15.1
2023-06-07T03:27:17.743Z,16
2023-06-07T03:36:46.156Z,24.3
2023-06-07T03:41:30.770Z,20.29
2023-06-07T03:46:14.988Z,16.1
2023-06-07T03:50:59.331Z,21.6
2023-06-07T03:55:43.500Z,16.6
2023-06-07T04:00:27.608Z,16.6
2023-06-07T04:05:11.819Z,23.5
2023-06-07T04:09:55.921Z,29.6
2023-06-07T04:14:40.137Z,34
2023-06-07T04:19:24.359Z,29.7
2023-06-07T04:24:08.465Z,31.1
2023-06-07T04:33:36.776Z,27
2023-06-07T04:38:20.983Z,37.09
2023-06-07T04:43:05.205Z,29.4
2023-06-07T04:52:33.528Z,28.5
2023-06-07T04:57:17.625Z,31.7
2023-06-07T05:02:02.038Z,20.29
2023-06-07T05:06:46.185Z,15.6
2023-06-07T05:11:30.359Z,53.3
2023-06-07T05:16:14.489Z,13.3
2023-06-07T05:20:58.680Z,24.8
2023-06-07T05:30:27.007Z,21.8
2023-06-07T05:35:11.211Z,21.1
2023-06-07T05:39:55.434Z,19.4
2023-06-07T05:44:39.522Z,23.2
2023-06-07T05:49:23.742Z,25
2023-06-07T05:54:07.840Z,37.09
2023-06-07T05:58:52.065Z,17.29
2023-06-07T06:03:36.269Z,20.29
2023-06-07T06:08:20.518Z,19.5
2023-06-07T06:13:04.699Z,20.5
2023-06-07T06:17:48.409Z,26.4
2023-06-07T06:22:31.225Z,26.8
2023-06-07T06:27:14.512Z,17.29
2023-06-07T06:31:57.724Z,20.4
2023-06-07T06:36:41.025Z,20.8
2023-06-07T06:46:07.582Z,26
2023-06-07T06:50:50.865Z,18.4
2023-06-07T07:00:17.280Z,16.79
2023-06-07T07:05:00.587Z,18.1
2023-06-07T07:09:43.900Z,24.2
2023-06-07T07:14:27.139Z,35.3
2023-06-07T07:19:10.423Z,13.9
2023-06-07T07:23:53.708Z,15.6
2023-06-07T07:28:36.937Z,13.3
2023-06-07T07:33:19.772Z,17.79
2023-06-07T07:38:03.058Z,10.2
2023-06-07T07:42:46.276Z,20.1
2023-06-07T08:01:39.335Z,10.5
2023-06-07T08:20:32.444Z,5.3
2023-06-07T08:25:15.657Z,5.5
2023-06-07T08:34:42.179Z,8.3
2023-06-07T08:44:08.722Z,3.6
2023-06-07T08:48:52.085Z,6
2023-06-07T08:53:35.308Z,5.1
2023-06-07T09:03:01.834Z,4.3
2023-06-07T09:07:45.074Z,4.6
2023-06-07T09:12:28.355Z,4.19
2023-06-07T09:17:11.590Z,6.1
2023-06-07T09:21:54.869Z,6.1
2023-06-07T09:26:38.093Z,4.5
2023-06-07T09:31:21.394Z,3.8
2023-06-07T09:36:04.725Z,15.4
2023-06-07T09:40:47.923Z,4.69
2023-06-07T09:45:31.257Z,5.2
2023-06-07T09:54:57.755Z,4.69
2023-06-07T09:59:40.972Z,3.2
2023-06-07T10:09:07.473Z,2.7
2023-06-07T10:13:50.791Z,7.8
2023-06-07T10:18:34.086Z,4.69
2023-06-07T10:23:17.395Z,3.8
2023-06-07T10:28:01.522Z,16.6
2023-06-07T10:42:14.050Z,2.8
2023-06-07T10:46:58.164Z,10.7
2023-06-07T10:51:42.378Z,17.1
2023-06-07T10:56:26.591Z,3.5
2023-06-07T11:15:23.246Z,7.1
2023-06-07T11:24:51.571Z,8.1
2023-06-07T11:30:37.277Z,7.4
2023-06-07T11:44:49.791Z,3.8
2023-06-07T11:54:18.123Z,2.09
2023-06-07T11:59:02.215Z,2
2023-06-07T12:55:52.401Z,1.9
2023-06-07T13:10:04.898Z,2.2
2023-06-07T13:19:33.221Z,2
2023-06-07T13:29:01.544Z,2.09
2023-06-07T13:38:29.967Z,2.3
2023-06-07T13:43:14.089Z,2.8
2023-06-07T13:47:58.313Z,7.7
2023-06-07T13:52:42.500Z,3.9
2023-06-07T14:02:10.812Z,2.2
2023-06-07T14:06:54.494Z,1.4
2023-06-07T14:11:37.746Z,3.7
2023-06-07T14:16:21.059Z,4.8
2023-06-07T14:21:04.271Z,2.2
2023-06-07T14:30:30.791Z,1.7
2023-06-07T14:49:23.928Z,1.7
2023-06-07T14:54:07.163Z,6.3
2023-06-07T15:08:16.974Z,8.5
2023-06-07T15:13:00.285Z,2.9
2023-06-07T15:22:26.808Z,4.5
2023-06-07T15:27:10.017Z,5.7
2023-06-07T15:36:36.647Z,4.3
2023-06-07T15:41:19.857Z,17.4
2023-06-07T15:46:03.164Z,6.8
2023-06-07T15:55:29.685Z,4.19
2023-06-07T16:00:13.000Z,5
2023-06-07T16:14:25.529Z,7.3
2023-06-07T16:19:09.640Z,2.3
2023-06-07T16:23:53.915Z,5.3
2023-06-07T16:28:38.075Z,2
2023-06-07T16:33:22.478Z,13.7
2023-06-07T16:42:50.917Z,3.2
2023-06-07T16:47:35.013Z,6.2
2023-06-07T17:06:31.761Z,4.3
2023-06-07T17:16:00.088Z,5
2023-06-07T17:25:28.416Z,3.5
2023-06-07T17:34:56.742Z,4.6
2023-06-07T17:39:41.052Z,5.1
2023-06-07T17:49:09.403Z,6.6
2023-06-07T17:53:53.571Z,5.3
2023-06-07T17:58:37.797Z,4.19
2023-06-07T18:03:21.903Z,4.8
2023-06-07T18:12:50.235Z,7.7
2023-06-07T18:17:34.454Z,5.7
2023-06-07T18:22:18.651Z,4.4
2023-06-07T18:31:47.015Z,3.8
2023-06-07T18:36:31.092Z,4.1
2023-06-07T18:41:15.361Z,5.8
2023-06-07T18:50:43.625Z,5
2023-06-07T18:55:27.833Z,4.3
2023-06-07T19:04:56.163Z,7.5
2023-06-07T19:09:40.375Z,4
2023-06-07T19:19:08.693Z,5.5
2023-06-07T19:28:37.019Z,5.2
2023-06-07T19:33:21.227Z,4
2023-06-07T19:38:05.340Z,4.9
2023-06-07T19:42:49.567Z,5.3
2023-06-07T19:47:33.852Z,5.1
2023-06-07T19:57:02.302Z,6.3
2023-06-07T20:01:46.390Z,6
2023-06-07T20:06:30.761Z,5.7
2023-06-07T20:11:14.914Z,12.8
2023-06-07T20:15:59.025Z,9.3
2023-06-07T20:25:27.460Z,20.4
2023-06-07T20:39:40.090Z,6.7
2023-06-07T20:44:24.492Z,6
2023-06-07T20:49:08.610Z,7
2023-06-07T20:53:52.818Z,14.4
2023-06-07T20:58:36.927Z,6.8
2023-06-07T21:03:21.135Z,8.7
2023-06-07T21:08:05.351Z,8.1
2023-06-07T21:12:49.476Z,5
2023-06-07T21:17:33.680Z,6.3
2023-06-07T21:22:17.820Z,6.4
2023-06-07T21:27:02.009Z,7.7
2023-06-07T21:31:46.206Z,5.9
2023-06-07T21:37:31.811Z,6.1
2023-06-07T21:42:16.026Z,6.6
2023-06-07T21:47:00.328Z,8.5
2023-06-07T21:51:44.635Z,7.6
2023-06-07T21:56:28.849Z,7.9
2023-06-07T22:01:13.091Z,6.7
2023-06-07T22:05:57.180Z,7.3
2023-06-07T22:10:41.390Z,6.6
2023-06-07T22:15:25.497Z,8.8
2023-06-07T22:20:09.712Z,6.8
2023-06-07T22:29:38.038Z,9.3
2023-06-07T22:34:22.248Z,6.5
2023-06-07T22:40:07.886Z,8.7
2023-06-07T22:44:52.061Z,6.4
2023-06-07T22:49:36.172Z,5.8
2023-06-07T22:54:20.409Z,10.1
2023-06-07T22:59:04.939Z,16.4
2023-06-07T23:03:49.102Z,8.8
2023-06-07T23:08:33.272Z,7.6
2023-06-07T23:13:17.427Z,15.2
2023-06-07T23:18:01.548Z,6.5
2023-06-07T23:22:45.749Z,7.3
2023-06-07T23:27:29.990Z,7.7
2023-06-07T23:32:14.073Z,6.8
2023-06-07T23:36:58.597Z,6.8
2023-06-07T23:41:42.791Z,6.8
2023-06-07T23:46:26.903Z,6.1
2023-06-07T23:51:11.170Z,6.6
2023-06-07T23:55:55.336Z,7.7
